KLFI/LFI METAR and TAF weather

Enter ICAO airport designator
Station Type Date Time Source
KLFI METAR 2021/03/09 08:56 UTC NOAA

KLFI 090856Z AUTO 21005KT 10SM CLR 01/M02 A3044 RMK AO2 SLP315 T00091022 55008 $


Station Type Date Time Source
KLFI Decoded METAR 2021/03/09 08:56 UTC NOAA

Langley Air Force Base, VA, United States (KLFI) 37-05N 076-21W 6M
Mar 09, 2021 - 03:56 AM EST / 2021.03.09 0856 UTC
Wind: from the SSW (210 degrees) at 6 MPH (5 KT):0
Visibility: 10 mile(s):0
Sky conditions: clear
Temperature: 33.6 F (0.9 C)
Windchill: 28 F (-2 C):1
Dew Point: 28.0 F (-2.2 C)
Relative Humidity: 79%
Pressure (altimeter): 30.44 in. Hg (1030 hPa)
Pressure tendency: 0.02 inches (0.8 hPa) lower than three hours ago
ob: KLFI 090856Z AUTO 21005KT 10SM CLR 01/M02 A3044 RMK AO2 SLP315 T00091022 55008
cycle: 9

Station Type Date Time Source
KLFI TAF 2021/03/08 21:15 UTC NOAA

TAF
AMD KLFI 082106Z 0821/0924 VRB06KT 9999 FEW210 QNH3040INS TX16/0918Z TN04/0912Z LAST NO
AMDS AFT 0821 NEXT 0910

Example: see airport list